Time;durP1;ratioP1;P1;durP2;ratioP2;P2;SDS_P1;SDS_P2;PMS_P1;PMS_P2;Temp;Humidity;BMP_temperature;BMP_pressure;BME280_temperature;BME280_humidity;BME280_pressure;Samples;Min_cycle;Max_cycle;Signal;HPM_P1;HPM_P2
2022/12/11 00:01:21;;;;;;;53.90;20.35;;;;;;;-148.88;100.00;77122.13;5014473;28;20026;-86
2022/12/11 00:03:47;;;;;;;50.63;18.67;;;;;;;-148.88;100.00;77109.94;5015901;28;20026;-87
2022/12/11 00:06:16;;;;;;;48.22;18.80;;;;;;;-148.88;100.00;77124.16;5014755;28;20018;-87
2022/12/11 00:08:42;;;;;;;52.17;17.80;;;;;;;-148.88;100.00;77114.00;5014694;28;20025;-87
2022/12/11 00:11:10;;;;;;;60.08;19.83;;;;;;;-148.88;100.00;77118.06;5015767;28;20133;-87
2022/12/11 00:13:36;;;;;;;58.75;20.13;;;;;;;-148.88;100.00;77122.13;5015114;28;20022;-88
2022/12/11 00:16:01;;;;;;;54.78;18.02;;;;;;;-148.88;100.00;77120.09;5014397;28;20026;-88
2022/12/11 00:18:27;;;;;;;53.72;19.80;;;;;;;-148.88;100.00;77122.13;5013369;28;20392;-88
2022/12/11 00:20:52;;;;;;;58.10;19.85;;;;;;;-148.88;100.00;77118.06;5012636;28;20392;-88
2022/12/11 00:23:17;;;;;;;61.88;21.80;;;;;;;-148.88;100.00;77124.16;5013032;28;20089;-87
2022/12/11 00:25:45;;;;;;;59.05;20.75;;;;;;;-148.88;100.00;77124.16;5012500;28;20389;-87
2022/12/11 00:28:13;;;;;;;59.63;20.48;;;;;;;-148.88;100.00;77124.16;5020751;28;20056;-88
2022/12/11 00:30:41;;;;;;;69.32;21.80;;;;;;;-148.88;100.00;77114.00;5013212;28;20030;-87
2022/12/11 00:33:06;;;;;;;73.82;21.48;;;;;;;-148.88;100.00;77118.06;5013601;28;20033;-88
2022/12/11 00:35:32;;;;;;;59.90;20.70;;;;;;;-148.88;100.00;77122.13;5013045;28;20056;-87
2022/12/11 00:37:57;;;;;;;69.03;21.02;;;;;;;-148.88;100.00;77120.09;5013247;28;20029;-87
2022/12/11 00:40:23;;;;;;;64.13;21.77;;;;;;;-148.88;100.00;77114.00;5012658;28;20532;-87
2022/12/11 00:42:48;;;;;;;73.20;22.05;;;;;;;-148.88;100.00;77122.13;5012446;28;20029;-86
2022/12/11 00:45:14;;;;;;;66.75;21.42;;;;;;;-148.88;100.00;77128.22;5012306;28;20026;-87
2022/12/11 00:47:40;;;;;;;65.75;22.38;;;;;;;-148.88;100.00;77134.31;5012652;28;20040;-87
2022/12/11 00:50:05;;;;;;;72.97;22.33;;;;;;;-148.88;100.00;77128.22;5013917;28;20018;-87
2022/12/11 00:52:31;;;;;;;70.28;23.17;;;;;;;-148.88;100.00;77130.25;5012487;28;20025;-87
2022/12/11 00:54:56;;;;;;;70.82;22.63;;;;;;;-148.88;100.00;77126.19;5012806;28;20025;-87
2022/12/11 00:57:22;;;;;;;74.80;21.55;;;;;;;-148.88;100.00;77130.25;5016315;28;20026;-87
2022/12/11 00:59:47;;;;;;;60.50;21.80;;;;;;;-148.88;100.00;77134.31;5016248;28;20025;-87
2022/12/11 01:02:12;;;;;;;75.57;21.60;;;;;;;-148.88;100.00;77134.31;5017624;28;20084;-86
2022/12/11 01:04:38;;;;;;;67.50;22.05;;;;;;;-148.88;100.00;77126.19;5016322;28;20082;-86
2022/12/11 01:07:03;;;;;;;62.53;21.45;;;;;;;-148.88;100.00;77138.38;5016607;28;20026;-87
2022/12/11 01:12:12;;;;;;;70.22;22.27;;;;;;;-148.88;100.00;77130.25;5023160;28;20029;-86
2022/12/11 01:14:38;;;;;;;71.10;22.50;;;;;;;-148.88;100.00;77134.31;5035645;28;20104;-86
2022/12/11 01:17:03;;;;;;;67.10;23.38;;;;;;;-148.88;100.00;77130.25;5034151;28;20029;-88
2022/12/11 01:19:32;;;;;;;61.03;20.70;;;;;;;-148.88;100.00;77130.25;5022220;28;20022;-87
2022/12/11 01:21:57;;;;;;;65.63;22.52;;;;;;;-148.88;100.00;77142.44;5019760;28;20025;-88
2022/12/11 01:24:22;;;;;;;65.75;22.02;;;;;;;-148.88;100.00;77142.44;5019308;28;20062;-87
2022/12/11 01:26:48;;;;;;;67.40;23.73;;;;;;;-148.88;100.00;77138.38;5017846;28;20022;-87
2022/12/11 01:29:13;;;;;;;66.35;23.13;;;;;;;-148.88;100.00;77144.47;5018071;28;20492;-86
2022/12/11 01:31:39;;;;;;;70.13;23.63;;;;;;;-148.88;100.00;77140.41;5017961;28;20475;-87
2022/12/11 01:34:04;;;;;;;68.22;21.13;;;;;;;-148.88;100.00;77136.34;5017294;28;20022;-87
2022/12/11 01:36:29;;;;;;;66.22;21.85;;;;;;;-148.88;100.00;77138.38;5016193;28;20492;-85
2022/12/11 01:38:55;;;;;;;64.15;21.52;;;;;;;-148.88;100.00;77134.31;5015899;28;20426;-87
2022/12/11 01:41:20;;;;;;;72.78;21.92;;;;;;;-148.88;100.00;77134.31;5017383;28;20373;-87
2022/12/11 01:43:57;;;;;;;69.22;22.70;;;;;;;-148.88;100.00;77134.31;5016717;28;20130;-87
2022/12/11 01:46:23;;;;;;;53.28;21.35;;;;;;;-148.88;100.00;77128.22;5015783;28;20405;-87
2022/12/11 01:48:49;;;;;;;59.85;22.60;;;;;;;-148.88;100.00;77134.31;5017501;28;20061;-87
2022/12/11 01:51:15;;;;;;;70.15;21.67;;;;;;;-148.88;100.00;77134.31;5015923;28;20018;-87
2022/12/11 01:53:44;;;;;;;62.60;21.08;;;;;;;-148.88;100.00;77142.44;5015715;28;20076;-87
2022/12/11 01:56:10;;;;;;;63.03;20.92;;;;;;;-148.88;100.00;77134.31;5032916;28;20010;-86
2022/12/11 01:59:06;;;;;;;64.32;21.13;;;;;;;-148.88;100.00;77126.19;5040186;28;20113;-84
2022/12/11 02:01:41;;;;;;;61.72;20.67;;;;;;;-148.88;100.00;77126.19;5018201;28;20034;-87
2022/12/11 02:04:08;;;;;;;63.55;21.08;;;;;;;-148.88;100.00;77122.13;5018639;28;20026;-87
2022/12/11 02:06:42;;;;;;;57.42;20.77;;;;;;;-148.88;100.00;77114.00;5016347;28;20022;-87
2022/12/11 02:09:12;;;;;;;61.13;19.95;;;;;;;-148.88;100.00;77105.84;5015123;28;20095;-87
2022/12/11 02:11:44;;;;;;;62.08;20.45;;;;;;;-148.88;100.00;77116.03;5015066;28;20104;-87
2022/12/11 02:14:16;;;;;;;74.90;20.13;;;;;;;-148.88;100.00;77107.91;5016008;28;20471;-87
2022/12/11 02:16:51;;;;;;;64.15;20.58;;;;;;;-148.88;100.00;77111.97;5015615;28;20022;-87
2022/12/11 02:19:39;;;;;;;70.72;20.63;;;;;;;-148.88;100.00;77114.00;5015624;28;20029;-87
2022/12/11 02:22:10;;;;;;;67.47;21.42;;;;;;;-148.88;100.00;77109.94;5016427;28;20032;-87
2022/12/11 02:24:56;;;;;;;61.75;20.73;;;;;;;-148.88;100.00;77109.94;5016877;28;20420;-86
2022/12/11 02:27:39;;;;;;;58.47;19.33;;;;;;;-148.88;100.00;77109.94;5017428;28;20034;-87
2022/12/11 02:30:10;;;;;;;63.00;18.88;;;;;;;-148.88;100.00;77114.00;5016051;28;20388;-87
2022/12/11 02:32:44;;;;;;;60.22;19.00;;;;;;;-148.88;100.00;77114.00;5015727;28;20124;-86
2022/12/11 02:35:29;;;;;;;79.20;21.65;;;;;;;-148.88;100.00;77109.94;5017137;28;20026;-87
2022/12/11 02:37:59;;;;;;;62.95;20.15;;;;;;;-148.88;100.00;77099.75;5015536;28;20037;-87
2022/12/11 02:40:29;;;;;;;57.70;20.45;;;;;;;-148.88;100.00;77109.94;5014168;28;20025;-88
2022/12/11 02:42:58;;;;;;;56.63;19.02;;;;;;;-148.88;100.00;77109.94;5014040;28;20026;-87
2022/12/11 02:45:26;;;;;;;65.10;19.38;;;;;;;-148.88;100.00;77109.94;5014698;28;20025;-87
2022/12/11 02:47:52;;;;;;;52.50;19.30;;;;;;;-148.88;100.00;77101.78;5016337;28;20026;-87
2022/12/11 02:50:20;;;;;;;61.28;20.48;;;;;;;-148.88;100.00;77099.75;5014875;28;20029;-87
2022/12/11 02:52:49;;;;;;;56.33;20.42;;;;;;;-148.88;100.00;77099.75;5016281;28;20040;-87
2022/12/11 02:55:16;;;;;;;61.72;19.25;;;;;;;-148.88;100.00;77097.72;5014966;28;20018;-87
2022/12/11 02:57:43;;;;;;;61.55;20.02;;;;;;;-148.88;100.00;77095.69;5016002;28;20041;-87
2022/12/11 03:00:09;;;;;;;61.17;20.02;;;;;;;-148.88;100.00;77093.66;5014804;28;20053;-87
2022/12/11 03:02:36;;;;;;;62.47;20.73;;;;;;;-148.88;100.00;77097.72;5014839;28;20030;-85
2022/12/11 03:05:03;;;;;;;65.53;19.63;;;;;;;-148.88;100.00;77089.59;5016018;28;20495;-86
2022/12/11 03:07:35;;;;;;;58.70;20.58;;;;;;;-148.88;100.00;77099.75;5015777;28;20053;-85
2022/12/11 03:10:00;;;;;;;70.35;21.63;;;;;;;-148.88;100.00;77093.66;5015243;28;20112;-86
2022/12/11 03:12:33;;;;;;;70.47;20.33;;;;;;;-148.88;100.00;77097.72;5014788;28;20049;-86
2022/12/11 03:15:01;;;;;;;69.07;20.02;;;;;;;-148.88;100.00;77093.66;5013978;28;20125;-86
2022/12/11 03:17:37;;;;;;;57.63;20.42;;;;;;;-148.88;100.00;77097.72;5014458;28;20055;-86
2022/12/11 03:20:23;;;;;;;76.25;24.80;;;;;;;-148.88;100.00;77095.69;5014240;28;20030;-85
2022/12/11 03:23:08;;;;;;;68.65;19.52;;;;;;;-148.88;100.00;77097.72;5015229;28;20393;-87
2022/12/11 03:25:45;;;;;;;64.53;19.33;;;;;;;-148.88;100.00;77101.78;5016106;28;20112;-88
2022/12/11 03:28:41;;;;;;;61.67;18.05;;;;;;;-148.88;100.00;77101.78;5016078;28;20029;-87
2022/12/11 03:31:13;;;;;;;65.05;19.42;;;;;;;-148.88;100.00;77105.84;4982392;28;20488;-87
2022/12/11 03:33:46;;;;;;;55.75;20.13;;;;;;;-148.88;100.00;77097.72;5014278;28;20112;-87
2022/12/11 03:36:26;;;;;;;49.38;17.77;;;;;;;-148.88;100.00;77105.84;5014404;28;20025;-85
2022/12/11 03:39:01;;;;;;;59.30;20.15;;;;;;;-148.88;100.00;77107.91;5014628;28;20093;-87
2022/12/11 03:41:29;;;;;;;57.05;19.00;;;;;;;-148.88;100.00;77105.84;5013828;28;20033;-86
2022/12/11 03:43:57;;;;;;;58.65;19.40;;;;;;;-148.88;100.00;77105.84;5015767;28;20447;-85
2022/12/11 03:46:28;;;;;;;63.95;19.27;;;;;;;-148.88;100.00;77114.00;5014506;28;20061;-84
2022/12/11 03:48:59;;;;;;;67.80;20.00;;;;;;;-148.88;100.00;77111.97;5015180;28;20021;-85
2022/12/11 03:51:25;;;;;;;72.22;21.10;;;;;;;-148.88;100.00;77109.94;5014519;28;20036;-86
2022/12/11 03:53:52;;;;;;;57.78;19.08;;;;;;;-148.88;100.00;77109.94;5013912;28;20029;-86
2022/12/11 03:56:20;;;;;;;61.40;20.33;;;;;;;-148.88;100.00;77105.84;5014167;28;20022;-85
2022/12/11 03:58:45;;;;;;;57.42;20.17;;;;;;;-148.88;100.00;77105.84;5015084;28;20060;-85
2022/12/11 04:01:10;;;;;;;72.95;20.92;;;;;;;-148.88;100.00;77101.78;5032725;28;20026;-85
2022/12/11 04:03:39;;;;;;;56.17;20.48;;;;;;;-148.88;100.00;77101.78;5032575;28;20026;-84
2022/12/11 04:06:05;;;;;;;57.80;20.90;;;;;;;-148.88;100.00;77101.78;5023326;28;20022;-85
2022/12/11 04:08:30;;;;;;;65.70;20.73;;;;;;;-148.88;100.00;77103.81;5020517;28;20051;-85
2022/12/11 04:13:40;;;;;;;51.50;17.73;;;;;;;-148.88;100.00;77109.94;5018838;28;20513;-86
2022/12/11 04:16:06;;;;;;;60.08;19.50;;;;;;;-148.88;100.00;77109.94;5018036;28;20044;-85
2022/12/11 04:24:14;;;;;;;50.72;18.20;;;;;;;-148.88;100.00;77097.72;5017049;28;20037;-83
2022/12/11 04:26:40;;;;;;;52.70;18.73;;;;;;;-148.88;100.00;77099.75;5036635;28;20025;-86
2022/12/11 04:29:05;;;;;;;59.60;20.50;;;;;;;-148.88;100.00;77099.75;5033925;28;20404;-85
2022/12/11 04:31:31;;;;;;;60.67;19.33;;;;;;;-148.88;100.00;77101.78;5022287;28;20030;-87
2022/12/11 04:33:56;;;;;;;69.80;20.50;;;;;;;-148.88;100.00;77101.78;5020968;28;20453;-86
2022/12/11 04:36:22;;;;;;;60.92;19.75;;;;;;;-148.88;100.00;77101.78;5018766;28;20033;-86
2022/12/11 04:38:47;;;;;;;55.67;19.08;;;;;;;-148.88;100.00;77101.78;5019212;28;20026;-87
2022/12/11 04:41:14;;;;;;;63.20;20.50;;;;;;;-148.88;100.00;77097.72;5019126;28;20021;-85
2022/12/11 04:43:40;;;;;;;57.35;20.55;;;;;;;-148.88;100.00;77097.72;5020652;28;20404;-85
2022/12/11 04:46:08;;;;;;;60.55;20.63;;;;;;;-148.88;100.00;77099.75;5018822;28;20021;-84
2022/12/11 04:48:36;;;;;;;60.35;20.65;;;;;;;-148.88;100.00;77097.72;5017409;28;20053;-87
2022/12/11 04:51:02;;;;;;;73.32;20.77;;;;;;;-148.88;100.00;77101.78;5016350;28;20114;-88
2022/12/11 04:53:27;;;;;;;67.78;21.50;;;;;;;-148.88;100.00;77101.78;5016606;28;20160;-84
2022/12/11 04:55:53;;;;;;;63.03;22.42;;;;;;;-148.88;100.00;77095.69;5016297;28;20022;-86
2022/12/11 04:58:19;;;;;;;57.65;19.00;;;;;;;-148.88;100.00;77091.63;5017755;28;20058;-86
2022/12/11 05:00:44;;;;;;;68.82;20.67;;;;;;;-148.88;100.00;77091.63;5017128;28;20491;-86
2022/12/11 05:03:10;;;;;;;64.53;21.58;;;;;;;-148.88;100.00;77099.75;5016171;28;20116;-87
2022/12/11 05:05:35;;;;;;;55.65;20.80;;;;;;;-148.88;100.00;77093.66;5016419;28;20444;-87
2022/12/11 05:08:01;;;;;;;62.47;20.08;;;;;;;-148.88;100.00;77093.66;5017753;28;20033;-88
2022/12/11 05:10:26;;;;;;;66.75;22.38;;;;;;;-148.88;100.00;77093.66;5016846;28;20014;-87
2022/12/11 05:12:51;;;;;;;61.35;20.80;;;;;;;-148.88;100.00;77093.66;5016559;28;20392;-86
2022/12/11 05:15:17;;;;;;;63.88;20.70;;;;;;;-148.88;100.00;77095.69;5018087;28;20034;-86
2022/12/11 05:17:42;;;;;;;60.47;20.13;;;;;;;-148.88;100.00;77089.59;5017868;28;20116;-86
2022/12/11 05:20:09;;;;;;;67.00;19.92;;;;;;;-148.88;100.00;77085.53;5017461;28;20045;-86
2022/12/11 05:22:36;;;;;;;64.80;20.52;;;;;;;-148.88;100.00;77091.63;5019409;28;20034;-86
2022/12/11 05:25:02;;;;;;;68.07;20.15;;;;;;;-148.88;100.00;77093.66;5016533;28;20034;-86
2022/12/11 05:27:28;;;;;;;71.82;22.02;;;;;;;-148.88;100.00;77081.47;5017198;28;20510;-86
2022/12/11 05:29:53;;;;;;;62.20;21.38;;;;;;;-148.88;100.00;77085.53;5017023;28;20080;-87
2022/12/11 05:32:18;;;;;;;71.10;22.83;;;;;;;-148.88;100.00;77085.53;5015763;28;20026;-85
2022/12/11 05:34:43;;;;;;;71.65;21.48;;;;;;;-148.88;100.00;77081.47;5015768;28;20024;-85
2022/12/11 05:37:09;;;;;;;70.65;21.38;;;;;;;-148.88;100.00;77101.78;5016678;28;20040;-86
2022/12/11 05:39:34;;;;;;;56.50;18.50;;;;;;;-148.88;100.00;77111.97;5015461;28;20047;-86
2022/12/11 05:42:00;;;;;;;63.65;21.08;;;;;;;-148.88;100.00;77120.09;5014206;28;20072;-87
2022/12/11 05:44:25;;;;;;;61.20;19.30;;;;;;;-148.88;100.00;77120.09;5016091;28;20029;-89
2022/12/11 05:46:51;;;;;;;59.33;17.33;;;;;;;-148.88;100.00;77120.09;5014750;28;20471;-87
2022/12/11 05:49:18;;;;;;;55.03;16.65;;;;;;;-148.88;100.00;77126.19;5014863;28;20121;-87
2022/12/11 05:51:43;;;;;;;68.80;16.88;;;;;;;-148.88;100.00;77142.44;5016008;28;20506;-87
2022/12/11 05:54:09;;;;;;;63.63;16.83;;;;;;;-148.88;100.00;77132.28;5014898;28;20030;-87
2022/12/11 05:56:35;;;;;;;52.72;15.55;;;;;;;-148.88;100.00;77130.25;5015099;28;20036;-87
2022/12/11 05:59:03;;;;;;;58.00;15.70;;;;;;;-148.88;100.00;77138.38;5016295;28;20026;-87
2022/12/11 06:01:32;;;;;;;52.33;14.65;;;;;;;-148.88;100.00;77126.19;5014771;28;20472;-87
2022/12/11 06:03:58;;;;;;;55.55;17.83;;;;;;;-148.88;100.00;77128.22;5014771;28;20030;-87
2022/12/11 06:06:24;;;;;;;52.60;15.60;;;;;;;-148.88;100.00;77124.16;5014895;28;20026;-86
2022/12/11 06:08:54;;;;;;;56.85;15.35;;;;;;;-148.88;100.00;77118.06;5014936;28;20025;-86
2022/12/11 06:11:22;;;;;;;49.50;15.15;;;;;;;-148.88;100.00;77120.09;5014623;28;20022;-87
2022/12/11 06:13:48;;;;;;;56.30;15.50;;;;;;;-148.88;100.00;77118.06;5015532;28;20029;-87
2022/12/11 06:16:13;;;;;;;55.30;15.52;;;;;;;-148.88;100.00;77114.00;5015475;28;20022;-86
2022/12/11 06:18:41;;;;;;;48.13;16.08;;;;;;;-148.88;100.00;77109.94;5014503;28;20116;-86
2022/12/11 06:21:18;;;;;;;48.70;15.90;;;;;;;-148.88;100.00;77114.00;5014480;28;20072;-86
2022/12/11 06:23:45;;;;;;;43.53;15.18;;;;;;;-148.88;100.00;77114.00;5014012;28;20049;-86
2022/12/11 06:26:12;;;;;;;58.05;18.00;;;;;;;-148.88;100.00;77118.06;5014100;28;20471;-88
2022/12/11 06:28:37;;;;;;;49.00;14.38;;;;;;;-148.88;100.00;77101.78;5014057;28;20029;-87
2022/12/11 06:31:04;;;;;;;47.70;15.18;;;;;;;-148.88;100.00;77124.16;5014592;28;20051;-86
2022/12/11 06:33:29;;;;;;;55.75;14.57;;;;;;;-148.88;100.00;77118.06;5015973;28;20026;-87
2022/12/11 06:35:55;;;;;;;49.40;15.38;;;;;;;-148.88;100.00;77109.94;5014070;28;20025;-88
2022/12/11 06:38:21;;;;;;;52.95;14.18;;;;;;;-148.88;100.00;77120.09;5015244;28;20022;-87
2022/12/11 06:40:54;;;;;;;44.72;13.15;;;;;;;-148.88;100.00;77109.94;5016126;28;20441;-87
2022/12/11 06:43:19;;;;;;;48.87;14.27;;;;;;;-148.88;100.00;77126.19;5013985;28;20030;-87
2022/12/11 06:45:44;;;;;;;48.58;14.25;;;;;;;-148.88;100.00;77138.38;5014436;28;20418;-86
2022/12/11 06:48:09;;;;;;;48.58;14.20;;;;;;;-148.88;100.00;77138.38;5032277;28;20018;-86
2022/12/11 06:50:37;;;;;;;48.80;13.07;;;;;;;-148.88;100.00;77130.25;5035094;28;20018;-86
2022/12/11 06:53:02;;;;;;;54.58;13.68;;;;;;;-148.88;100.00;77120.09;5026639;28;20033;-87
2022/12/11 06:55:28;;;;;;;44.97;13.65;;;;;;;-148.88;100.00;77122.13;5017785;28;20025;-87
2022/12/11 06:57:53;;;;;;;48.15;14.07;;;;;;;-148.88;100.00;77118.06;5018846;28;20029;-87
2022/12/11 07:00:18;;;;;;;40.20;13.13;;;;;;;-148.88;100.00;77118.06;5020552;28;20048;-87
2022/12/11 07:02:44;;;;;;;46.97;13.38;;;;;;;-148.88;100.00;77124.16;5019987;28;20098;-87
2022/12/11 07:05:09;;;;;;;50.40;14.52;;;;;;;-148.88;100.00;77128.22;5015994;28;20084;-87
2022/12/11 07:07:38;;;;;;;50.00;13.88;;;;;;;-148.88;100.00;77132.28;5016956;28;20050;-86
2022/12/11 07:10:04;;;;;;;49.97;13.07;;;;;;;-148.88;100.00;77128.22;5018387;28;20062;-87
2022/12/11 07:12:29;;;;;;;45.83;12.98;;;;;;;-148.88;100.00;77130.25;5017800;28;20032;-86
2022/12/11 07:14:54;;;;;;;44.17;13.35;;;;;;;-148.88;100.00;77118.06;5017606;28;20060;-87
2022/12/11 07:17:20;;;;;;;45.60;13.80;;;;;;;-148.88;100.00;77130.25;5014314;28;20455;-87
2022/12/11 07:19:45;;;;;;;42.72;12.43;;;;;;;-148.88;100.00;77142.44;5014448;28;20025;-86
2022/12/11 07:22:10;;;;;;;46.05;13.00;;;;;;;-148.88;100.00;77146.50;5014849;28;20056;-88
2022/12/11 07:24:36;;;;;;;41.15;10.85;;;;;;;-148.88;100.00;77128.22;5014165;28;20036;-86
2022/12/11 07:27:03;;;;;;;48.80;13.40;;;;;;;-148.88;100.00;77134.31;5015226;28;20449;-87
2022/12/11 07:29:28;;;;;;;42.15;13.65;;;;;;;-148.88;100.00;77132.28;5014016;28;20384;-83
2022/12/11 07:31:53;;;;;;;47.17;13.07;;;;;;;-148.88;100.00;77132.28;5014925;28;20021;-85
2022/12/11 07:34:19;;;;;;;49.60;14.23;;;;;;;-148.88;100.00;77144.47;5014680;28;20021;-85
2022/12/11 07:36:47;;;;;;;42.72;12.95;;;;;;;-148.88;100.00;77134.31;5016816;28;20021;-86
2022/12/11 07:39:12;;;;;;;42.13;11.55;;;;;;;-148.88;100.00;77130.25;5015958;28;20086;-86
2022/12/11 07:41:38;;;;;;;43.65;13.70;;;;;;;-148.88;100.00;77122.13;5014489;28;20105;-87
2022/12/11 07:44:04;;;;;;;36.80;12.00;;;;;;;-148.88;100.00;77122.13;5017201;28;20164;-85
2022/12/11 07:46:31;;;;;;;40.85;11.50;;;;;;;-148.88;100.00;77118.06;5017221;28;20041;-86
2022/12/11 07:48:56;;;;;;;45.13;11.82;;;;;;;-148.88;100.00;77118.06;5016847;28;20025;-87
2022/12/11 07:51:27;;;;;;;37.20;11.73;;;;;;;-148.88;100.00;77128.22;5014802;28;20076;-87
2022/12/11 07:53:55;;;;;;;42.63;10.98;;;;;;;-148.88;100.00;77132.28;5016892;28;20049;-87
2022/12/11 07:56:22;;;;;;;37.60;11.70;;;;;;;-148.88;100.00;77124.16;5015226;28;20017;-86
2022/12/11 07:58:47;;;;;;;41.55;10.20;;;;;;;-148.88;100.00;77130.25;5017226;28;20022;-86
2022/12/11 08:01:15;;;;;;;43.72;12.05;;;;;;;-148.88;100.00;77126.19;5013965;28;20014;-86
2022/12/11 08:03:41;;;;;;;41.25;13.02;;;;;;;-148.88;100.00;77118.06;5015306;28;20435;-86
2022/12/11 08:06:07;;;;;;;44.05;12.32;;;;;;;-148.88;100.00;77118.06;5019934;28;20018;-85
2022/12/11 08:08:33;;;;;;;38.75;11.77;;;;;;;-148.88;100.00;77120.09;5022581;28;20021;-85
2022/12/11 08:11:02;;;;;;;46.97;12.57;;;;;;;-148.88;100.00;77130.25;5020705;28;20104;-85
2022/12/11 08:13:28;;;;;;;40.28;11.77;;;;;;;-148.88;100.00;77130.25;5021806;28;20017;-85
2022/12/11 08:15:53;;;;;;;46.28;13.05;;;;;;;-148.88;100.00;77128.22;5022602;28;20052;-85
2022/12/11 08:18:18;;;;;;;36.03;11.55;;;;;;;-148.88;100.00;77124.16;5023774;28;20037;-86
2022/12/11 08:20:44;;;;;;;38.13;12.52;;;;;;;-148.88;100.00;77120.09;5023289;28;20551;-85
2022/12/11 08:23:09;;;;;;;39.42;11.52;;;;;;;-148.88;100.00;77118.06;5023971;28;20065;-85
2022/12/11 08:25:35;;;;;;;42.28;13.35;;;;;;;-148.88;100.00;77118.06;5024081;28;20080;-86
2022/12/11 08:28:00;;;;;;;40.25;12.07;;;;;;;-148.88;100.00;77126.19;5024153;28;20423;-86
2022/12/11 08:30:25;;;;;;;39.17;11.75;;;;;;;-148.88;100.00;77134.31;5023527;28;20424;-85
2022/12/11 08:32:51;;;;;;;40.97;12.82;;;;;;;-148.88;100.00;77134.31;5028155;28;20029;-84
2022/12/11 08:35:16;;;;;;;42.03;11.50;;;;;;;-148.88;100.00;77126.19;5025362;28;20025;-85
2022/12/11 08:37:41;;;;;;;33.35;9.68;;;;;;;-148.88;100.00;77114.00;5024297;28;20033;-85
2022/12/11 08:40:08;;;;;;;48.92;10.85;;;;;;;-148.88;100.00;77130.25;5021497;28;20022;-85
2022/12/11 08:42:33;;;;;;;43.33;11.60;;;;;;;-148.88;100.00;77124.16;5023069;28;20547;-86
2022/12/11 08:44:59;;;;;;;42.05;12.90;;;;;;;-148.88;100.00;77126.19;5024221;28;20060;-86
2022/12/11 08:47:24;;;;;;;43.53;13.00;;;;;;;-148.88;100.00;77130.25;5020679;28;20052;-85
2022/12/11 08:49:49;;;;;;;55.78;12.40;;;;;;;-148.88;100.00;77134.31;5021231;28;20112;-84
2022/12/11 08:52:15;;;;;;;46.22;12.43;;;;;;;-148.88;100.00;77126.19;5022341;28;20102;-86
2022/12/11 08:54:40;;;;;;;48.42;13.27;;;;;;;-148.88;100.00;77144.47;5020754;28;20022;-85
2022/12/11 08:57:06;;;;;;;37.00;11.60;;;;;;;-148.88;100.00;77132.28;5021686;28;20048;-87
2022/12/11 08:59:31;;;;;;;40.60;10.93;;;;;;;-148.88;100.00;77126.19;5021275;28;20075;-85
2022/12/11 09:01:56;;;;;;;32.63;10.93;;;;;;;-148.88;100.00;77130.25;5022255;28;20491;-86
2022/12/11 09:04:22;;;;;;;42.63;10.63;;;;;;;-148.88;100.00;77144.47;5022447;28;20040;-85
2022/12/11 09:06:48;;;;;;;36.03;10.77;;;;;;;-148.88;100.00;77130.25;5021169;28;20025;-85
2022/12/11 09:09:13;;;;;;;35.88;9.63;;;;;;;-148.88;100.00;77138.38;5022512;28;20076;-86
2022/12/11 09:11:39;;;;;;;41.45;10.70;;;;;;;-148.88;100.00;77132.28;5021920;28;20108;-86
2022/12/11 09:14:05;;;;;;;40.85;10.55;;;;;;;-148.88;100.00;77126.19;5022337;28;20026;-86
2022/12/11 09:16:36;;;;;;;35.85;11.00;;;;;;;-148.88;100.00;77122.13;5017942;28;20026;-85
2022/12/11 09:19:01;;;;;;;32.05;10.63;;;;;;;-148.88;100.00;77126.19;5019038;28;20021;-84
2022/12/11 09:21:29;;;;;;;36.15;10.82;;;;;;;-148.88;100.00;77126.19;5026512;28;20028;-86
2022/12/11 09:23:56;;;;;;;34.28;10.05;;;;;;;-148.88;100.00;77142.44;5038160;28;20060;-85
2022/12/11 09:26:22;;;;;;;46.00;11.25;;;;;;;-148.88;100.00;77128.22;5032501;28;20033;-87
2022/12/11 09:28:50;;;;;;;36.00;11.25;;;;;;;-148.88;100.00;77130.25;5023723;28;20021;-87
2022/12/11 09:31:24;;;;;;;41.55;10.55;;;;;;;-148.88;100.00;77122.13;5023389;28;20019;-86
2022/12/11 09:33:50;;;;;;;34.25;10.43;;;;;;;-148.88;100.00;77122.13;5019377;28;20056;-86
2022/12/11 09:36:18;;;;;;;36.35;11.35;;;;;;;-148.88;100.00;77132.28;5018227;28;20404;-87
2022/12/11 09:38:44;;;;;;;38.97;10.60;;;;;;;-148.88;100.00;77134.31;5021282;28;20086;-85
2022/12/11 09:41:21;;;;;;;41.47;10.52;;;;;;;-148.88;100.00;77126.19;5021391;28;20109;-86
2022/12/11 09:44:01;;;;;;;31.27;9.30;;;;;;;-148.88;100.00;77126.19;5025370;28;20061;-86
2022/12/11 09:46:27;;;;;;;46.95;13.93;;;;;;;-148.88;100.00;77132.28;5031878;28;20086;-86
2022/12/11 09:48:53;;;;;;;48.05;13.05;;;;;;;-148.88;100.00;77128.22;5035449;28;20029;-87
2022/12/11 09:51:24;;;;;;;41.53;12.15;;;;;;;-148.88;100.00;77128.22;5020289;28;20085;-87
2022/12/11 09:53:51;;;;;;;50.13;18.08;;;;;;;-148.88;100.00;77128.22;5022072;28;20113;-86
2022/12/11 09:56:38;;;;;;;45.13;15.68;;;;;;;-148.88;100.00;77128.22;5023407;28;20021;-86
2022/12/11 09:59:21;;;;;;;37.92;12.18;;;;;;;-148.88;100.00;77130.25;5019727;28;20113;-86
2022/12/11 10:02:07;;;;;;;35.92;9.60;;;;;;;-148.88;100.00;77124.16;5019432;28;20508;-86
2022/12/11 10:04:35;;;;;;;39.67;12.05;;;;;;;-148.88;100.00;77116.03;5020679;28;20048;-86
2022/12/11 10:07:03;;;;;;;37.25;12.02;;;;;;;-148.88;100.00;77118.06;5018484;28;20500;-87
2022/12/11 10:09:34;;;;;;;46.78;12.68;;;;;;;-148.88;100.00;77105.84;5017441;28;20032;-86
2022/12/11 10:12:26;;;;;;;43.38;13.07;;;;;;;-148.88;100.00;77111.97;5017969;28;20588;-85
2022/12/11 10:14:57;;;;;;;43.72;13.10;;;;;;;-148.88;100.00;77103.81;5008432;28;20037;-85
2022/12/11 10:17:29;;;;;;;38.50;11.93;;;;;;;-148.88;100.00;77116.03;5020018;28;20025;-86
2022/12/11 10:20:13;;;;;;;34.28;11.15;;;;;;;-148.88;100.00;77101.78;5023662;28;20077;-86
2022/12/11 10:22:38;;;;;;;35.83;10.90;;;;;;;-148.88;100.00;77103.81;5018813;28;20026;-86
2022/12/11 10:25:06;;;;;;;39.90;11.77;;;;;;;-148.88;100.00;77107.91;5016670;28;20029;-83
2022/12/11 10:27:37;;;;;;;36.95;12.98;;;;;;;-148.88;100.00;77116.03;5017591;28;20097;-85
2022/12/11 10:30:11;;;;;;;35.25;10.00;;;;;;;-148.88;100.00;77111.97;5017854;28;20087;-86
2022/12/11 10:32:46;;;;;;;40.63;12.55;;;;;;;-148.88;100.00;77122.13;5016286;28;20030;-85
2022/12/11 10:35:19;;;;;;;36.75;11.85;;;;;;;-148.88;100.00;77118.06;5016454;28;20033;-85
2022/12/11 10:37:44;;;;;;;38.85;12.13;;;;;;;-148.88;100.00;77105.84;5016206;28;20392;-86
2022/12/11 10:40:11;;;;;;;37.20;11.35;;;;;;;-148.88;100.00;77107.91;5017144;28;20033;-87
2022/12/11 10:42:36;;;;;;;42.30;11.68;;;;;;;-148.88;100.00;77109.94;5017569;28;20061;-86
2022/12/11 10:45:04;;;;;;;36.15;12.60;;;;;;;-148.88;100.00;77114.00;5015961;28;20554;-85
2022/12/11 10:47:32;;;;;;;42.75;12.93;;;;;;;-148.88;100.00;77114.00;5017200;28;20030;-84
2022/12/11 10:50:01;;;;;;;39.17;12.90;;;;;;;-148.88;100.00;77111.97;5015412;28;20427;-86
2022/12/11 10:52:34;;;;;;;43.83;12.30;;;;;;;-148.88;100.00;77116.03;5018826;28;20026;-85
2022/12/11 10:55:06;;;;;;;32.75;12.35;;;;;;;-148.88;100.00;77107.91;5018525;28;20030;-86
2022/12/11 10:57:35;;;;;;;39.63;13.15;;;;;;;-148.88;100.00;77101.78;5018047;28;20040;-86
2022/12/11 11:00:06;;;;;;;49.05;15.88;;;;;;;-148.88;100.00;77114.00;5015044;28;20030;-85
2022/12/11 11:02:38;;;;;;;41.70;13.85;;;;;;;-148.88;100.00;77101.78;5014595;28;20022;-85
2022/12/11 11:05:16;;;;;;;49.95;14.05;;;;;;;-148.88;100.00;77091.63;5015245;28;20037;-84
2022/12/11 11:07:41;;;;;;;37.45;13.85;;;;;;;-148.88;100.00;77103.81;5021120;28;20068;-86
2022/12/11 11:10:10;;;;;;;35.40;12.32;;;;;;;-148.88;100.00;77093.66;5016133;28;20389;-85